Time;durP1;ratioP1;P1;durP2;ratioP2;P2;SDS_P1;SDS_P2;PMS_P1;PMS_P2;Temp;Humidity;BMP_temperature;BMP_pressure;BME280_temperature;BME280_humidity;BME280_pressure;Samples;Min_cycle;Max_cycle;Signal;HPM_P1;HPM_P2
2024/01/08 00:00:55;;;;;;;1.40;1.27;;;23.10;56.60;;;;;;6252245;23;20726;-91
2024/01/08 00:03:22;;;;;;;1.67;1.57;;;23.10;56.60;;;;;;6253240;22;20413;-92
2024/01/08 00:05:49;;;;;;;1.63;1.53;;;23.10;56.60;;;;;;6252325;23;20468;-92
2024/01/08 00:08:17;;;;;;;1.93;1.30;;;23.10;56.60;;;;;;6253521;23;20413;-92
2024/01/08 00:10:44;;;;;;;1.57;1.47;;;23.20;56.60;;;;;;6251893;23;20411;-92
2024/01/08 00:13:11;;;;;;;1.50;1.20;;;23.10;56.60;;;;;;6254095;23;20457;-92
2024/01/08 00:15:38;;;;;;;1.50;1.30;;;23.10;56.60;;;;;;6251839;23;20404;-92
2024/01/08 00:18:05;;;;;;;1.70;1.40;;;23.00;56.50;;;;;;6251017;23;20429;-91
2024/01/08 00:20:32;;;;;;;1.90;1.50;;;23.00;56.50;;;;;;6249905;23;20488;-92
2024/01/08 00:22:59;;;;;;;1.40;1.30;;;23.00;56.40;;;;;;6253369;23;20411;-92
2024/01/08 00:25:27;;;;;;;1.47;1.20;;;23.10;56.50;;;;;;6248504;23;20453;-93
2024/01/08 00:27:54;;;;;;;1.70;1.40;;;23.00;56.40;;;;;;6251347;23;20492;-92
2024/01/08 00:30:21;;;;;;;1.67;1.13;;;23.00;56.40;;;;;;6249776;23;20407;-92
2024/01/08 00:32:48;;;;;;;1.30;1.03;;;23.10;56.40;;;;;;6251240;23;20405;-92
2024/01/08 00:35:15;;;;;;;2.50;1.67;;;23.00;56.40;;;;;;6251436;23;20492;-92
2024/01/08 00:37:42;;;;;;;1.37;1.10;;;23.00;56.40;;;;;;6250568;23;20474;-92
2024/01/08 00:43:25;;;;;;;1.90;1.53;;;23.00;56.30;;;;;;6251886;23;20374;-92
2024/01/08 00:45:52;;;;;;;1.37;1.20;;;23.00;56.40;;;;;;6247827;23;20527;-93
2024/01/08 00:48:19;;;;;;;1.40;1.30;;;23.00;56.40;;;;;;6250093;23;20409;-92
2024/01/08 00:50:47;;;;;;;1.50;1.13;;;23.00;56.40;;;;;;6249519;23;20457;-92
2024/01/08 00:53:14;;;;;;;1.90;1.20;;;23.00;56.30;;;;;;6224011;23;20408;-92
2024/01/08 00:55:41;;;;;;;1.30;1.00;;;23.00;56.90;;;;;;6248072;23;20431;-92
2024/01/08 00:58:08;;;;;;;1.30;1.20;;;23.00;56.30;;;;;;6250284;23;20397;-95
2024/01/08 01:00:36;;;;;;;1.53;1.10;;;23.00;56.30;;;;;;6248196;23;20927;-92
2024/01/08 01:03:03;;;;;;;2.47;1.17;;;23.00;56.30;;;;;;6250621;22;20927;-93
2024/01/08 01:05:30;;;;;;;1.20;1.00;;;23.00;56.30;;;;;;6248319;23;20830;-91
2024/01/08 01:07:58;;;;;;;1.40;1.20;;;23.00;56.20;;;;;;6221905;23;20956;-91
2024/01/08 01:10:25;;;;;;;1.30;1.20;;;22.80;56.10;;;;;;6248295;23;20407;-91
2024/01/08 01:12:52;;;;;;;1.40;1.30;;;23.00;56.20;;;;;;6247571;23;20488;-94
2024/01/08 01:15:19;;;;;;;1.30;1.13;;;23.00;56.30;;;;;;6249648;23;20429;-92
2024/01/08 01:17:47;;;;;;;1.63;1.03;;;23.00;56.30;;;;;;6252212;23;20738;-93
2024/01/08 01:20:14;;;;;;;1.50;1.30;;;23.00;56.20;;;;;;6249479;23;20484;-92
2024/01/08 01:22:41;;;;;;;1.30;1.10;;;23.00;56.30;;;;;;6248636;23;20888;-92
2024/01/08 01:25:09;;;;;;;1.30;1.20;;;22.90;56.20;;;;;;6250048;22;20531;-92
2024/01/08 01:27:36;;;;;;;1.50;1.30;;;22.90;56.20;;;;;;6251494;23;20408;-92
2024/01/08 01:30:03;;;;;;;1.60;1.40;;;22.90;56.10;;;;;;6251123;23;20432;-92
2024/01/08 01:32:30;;;;;;;3.93;1.17;;;22.90;56.20;;;;;;6251178;23;20400;-92
2024/01/08 01:35:02;;;;;;;1.30;1.00;;;22.90;56.10;;;;;;6251291;23;20488;-92
2024/01/08 01:37:29;;;;;;;1.30;1.10;;;22.90;56.20;;;;;;6251767;23;20385;-93
2024/01/08 01:39:57;;;;;;;1.30;1.10;;;22.90;56.20;;;;;;6253576;23;20377;-92
2024/01/08 01:42:24;;;;;;;1.30;1.20;;;22.90;56.20;;;;;;6252868;23;20455;-92
2024/01/08 01:44:51;;;;;;;1.40;1.07;;;22.90;56.20;;;;;;6251091;23;20720;-92
2024/01/08 01:47:18;;;;;;;1.30;0.97;;;22.90;56.20;;;;;;6250854;23;20599;-92
2024/01/08 01:49:45;;;;;;;1.27;1.13;;;22.90;56.20;;;;;;6250167;23;20915;-92
2024/01/08 01:52:14;;;;;;;1.30;1.10;;;22.80;56.10;;;;;;6251899;23;20908;-92
2024/01/08 01:54:41;;;;;;;1.50;1.27;;;22.80;56.20;;;;;;6250955;23;20520;-92
2024/01/08 01:57:08;;;;;;;1.73;1.30;;;22.80;56.20;;;;;;6251380;23;20412;-92
2024/01/08 01:59:35;;;;;;;1.27;1.03;;;22.80;56.20;;;;;;6249765;23;20432;-91
2024/01/08 02:02:03;;;;;;;1.20;0.90;;;22.80;56.20;;;;;;6250870;23;20411;-92
2024/01/08 02:04:31;;;;;;;1.47;1.13;;;22.80;56.20;;;;;;6251319;23;20393;-92
2024/01/08 02:06:58;;;;;;;2.27;1.00;;;22.80;56.20;;;;;;6251079;23;20450;-94
2024/01/08 02:09:28;;;;;;;2.33;1.13;;;22.80;56.10;;;;;;6250925;23;20480;-92
2024/01/08 02:11:55;;;;;;;1.20;0.90;;;22.80;56.20;;;;;;6250159;23;20404;-91
2024/01/08 02:14:22;;;;;;;1.67;1.13;;;22.80;56.10;;;;;;6250334;23;20485;-92
2024/01/08 02:16:49;;;;;;;1.40;1.10;;;22.80;56.20;;;;;;6249367;23;20516;-92
2024/01/08 02:19:16;;;;;;;1.30;0.90;;;22.80;56.10;;;;;;6249013;23;20793;-92
2024/01/08 02:21:43;;;;;;;1.20;0.93;;;22.80;56.20;;;;;;6251083;23;20406;-92
2024/01/08 02:24:12;;;;;;;1.50;1.30;;;22.80;56.20;;;;;;6250104;23;20401;-91
2024/01/08 02:26:38;;;;;;;1.27;1.00;;;22.80;56.20;;;;;;6249642;23;20479;-91
2024/01/08 02:29:05;;;;;;;1.40;1.10;;;22.80;56.20;;;;;;6250136;23;20433;-92
2024/01/08 02:31:32;;;;;;;1.33;1.20;;;22.80;56.10;;;;;;6250461;23;20939;-92
2024/01/08 02:33:59;;;;;;;1.40;1.20;;;22.90;56.20;;;;;;6249746;23;20396;-92
2024/01/08 02:36:26;;;;;;;1.30;0.97;;;22.80;56.20;;;;;;6248968;23;20910;-95
2024/01/08 02:38:53;;;;;;;1.60;1.00;;;22.90;56.20;;;;;;6249058;23;20440;-92
2024/01/08 02:41:21;;;;;;;1.50;1.20;;;22.80;56.20;;;;;;6250726;23;20408;-92
2024/01/08 02:43:48;;;;;;;1.57;1.10;;;22.80;56.10;;;;;;6251224;23;20425;-92
2024/01/08 02:46:15;;;;;;;1.40;1.17;;;22.80;56.20;;;;;;6252222;23;20484;-92
2024/01/08 02:48:42;;;;;;;1.30;1.10;;;22.70;56.10;;;;;;6249629;23;20401;-92
2024/01/08 02:51:08;;;;;;;1.80;1.40;;;22.70;56.00;;;;;;6251338;23;20492;-92
2024/01/08 02:53:35;;;;;;;1.57;1.20;;;22.80;56.10;;;;;;6251054;23;20429;-92
2024/01/08 02:56:02;;;;;;;1.20;1.00;;;22.70;56.10;;;;;;6224203;23;20448;-92
2024/01/08 02:58:30;;;;;;;1.37;1.00;;;22.80;56.20;;;;;;6249870;23;20400;-92
2024/01/08 03:00:59;;;;;;;1.27;1.10;;;22.80;56.10;;;;;;6251151;23;20432;-92
2024/01/08 03:03:26;;;;;;;1.30;1.10;;;22.70;56.10;;;;;;6251031;23;20401;-92
2024/01/08 03:05:54;;;;;;;1.30;1.20;;;22.70;56.10;;;;;;6249709;23;20464;-93
2024/01/08 03:08:20;;;;;;;1.20;1.00;;;22.70;56.10;;;;;;6250302;23;20484;-91
2024/01/08 03:10:47;;;;;;;1.50;1.30;;;22.70;56.10;;;;;;6249004;23;20428;-92
2024/01/08 03:13:15;;;;;;;1.33;1.10;;;22.70;56.10;;;;;;6250008;23;20428;-92
2024/01/08 03:15:43;;;;;;;1.30;1.13;;;22.70;56.10;;;;;;6249553;23;20410;-91
2024/01/08 03:18:10;;;;;;;1.50;1.27;;;22.70;56.10;;;;;;6250413;23;20407;-92
2024/01/08 03:20:36;;;;;;;1.30;1.10;;;22.70;56.10;;;;;;6248858;23;20483;-92
2024/01/08 03:23:04;;;;;;;1.40;1.30;;;22.70;56.10;;;;;;6249336;23;20493;-91
2024/01/08 03:25:31;;;;;;;1.33;1.03;;;22.70;56.10;;;;;;6248426;23;20916;-92
2024/01/08 03:27:58;;;;;;;1.30;1.00;;;22.70;56.10;;;;;;6249638;23;20437;-92
2024/01/08 03:30:24;;;;;;;1.80;1.00;;;22.70;56.10;;;;;;6251543;23;20432;-92
2024/01/08 03:32:53;;;;;;;1.33;1.17;;;22.70;56.10;;;;;;6250700;23;20425;-91
2024/01/08 03:35:20;;;;;;;1.63;1.20;;;22.70;56.00;;;;;;6248790;23;20496;-91
2024/01/08 03:37:47;;;;;;;1.60;1.20;;;22.70;56.00;;;;;;6248706;23;20455;-92
2024/01/08 03:40:13;;;;;;;1.30;1.00;;;22.70;56.00;;;;;;6249736;23;20718;-92
2024/01/08 03:42:40;;;;;;;1.40;1.10;;;22.70;56.00;;;;;;6248910;23;20436;-91
2024/01/08 03:45:30;;;;;;;1.20;1.10;;;22.70;56.00;;;;;;6249852;23;20492;-91
2024/01/08 03:47:58;;;;;;;1.20;1.10;;;22.70;56.00;;;;;;6249292;23;20382;-92
2024/01/08 03:50:25;;;;;;;1.30;1.10;;;22.70;56.10;;;;;;6249679;23;20763;-93
2024/01/08 03:52:52;;;;;;;1.20;1.00;;;22.70;56.00;;;;;;6249206;23;20706;-92
2024/01/08 03:55:19;;;;;;;1.30;1.00;;;22.70;56.00;;;;;;6249616;23;20905;-92
2024/01/08 03:57:46;;;;;;;1.30;0.90;;;22.70;56.10;;;;;;6250359;23;20401;-92
2024/01/08 04:00:13;;;;;;;1.53;0.80;;;22.70;56.00;;;;;;6249132;23;20393;-92
2024/01/08 04:02:41;;;;;;;1.47;1.17;;;22.70;56.10;;;;;;6249671;23;20455;-91
2024/01/08 04:05:11;;;;;;;1.40;1.13;;;22.70;56.00;;;;;;6250581;23;20389;-93
2024/01/08 04:07:38;;;;;;;1.20;0.90;;;22.70;56.00;;;;;;6248826;23;20433;-91
2024/01/08 04:10:05;;;;;;;1.30;1.00;;;22.70;56.60;;;;;;6249595;23;20401;-92
2024/01/08 04:12:32;;;;;;;2.13;1.57;;;22.70;56.10;;;;;;6250427;23;20433;-92
2024/01/08 04:14:59;;;;;;;1.60;1.10;;;22.60;56.00;;;;;;6248818;23;20790;-91
2024/01/08 04:17:27;;;;;;;1.50;1.13;;;22.60;56.00;;;;;;6249210;23;20501;-93
2024/01/08 04:19:54;;;;;;;1.20;1.00;;;22.60;56.00;;;;;;6248902;23;20410;-94
2024/01/08 04:22:22;;;;;;;1.30;1.20;;;22.60;56.00;;;;;;6250114;23;20878;-92
2024/01/08 04:24:49;;;;;;;1.47;1.30;;;22.60;56.00;;;;;;6250195;23;20509;-91
2024/01/08 04:27:16;;;;;;;1.20;0.87;;;22.60;56.00;;;;;;6249382;23;20491;-92
2024/01/08 04:29:43;;;;;;;1.40;1.20;;;22.60;56.00;;;;;;6249256;23;20795;-91
2024/01/08 04:32:10;;;;;;;1.40;1.00;;;22.60;56.10;;;;;;6249297;23;20718;-92
2024/01/08 04:34:37;;;;;;;1.50;0.90;;;22.60;56.10;;;;;;6248228;23;20477;-92
2024/01/08 04:37:04;;;;;;;1.20;0.90;;;22.60;56.10;;;;;;6250199;23;20899;-92
2024/01/08 04:39:32;;;;;;;1.30;1.10;;;22.60;56.10;;;;;;6248579;23;20520;-96
2024/01/08 04:41:59;;;;;;;1.20;0.90;;;22.60;56.10;;;;;;6249576;23;20409;-92
2024/01/08 04:44:26;;;;;;;1.30;1.00;;;22.60;56.10;;;;;;6249153;23;20397;-93
2024/01/08 04:46:53;;;;;;;1.27;1.00;;;22.60;56.00;;;;;;6247763;23;20444;-91
2024/01/08 04:49:21;;;;;;;1.30;1.00;;;22.60;56.10;;;;;;6249095;23;20405;-91
2024/01/08 04:51:49;;;;;;;1.23;0.97;;;22.60;56.10;;;;;;6249369;23;20389;-92
2024/01/08 04:54:17;;;;;;;1.70;1.17;;;22.60;56.00;;;;;;6248849;23;20787;-92
2024/01/08 04:56:45;;;;;;;1.20;1.07;;;22.50;55.90;;;;;;6247815;23;20402;-91
2024/01/08 04:59:12;;;;;;;1.70;1.13;;;22.60;56.00;;;;;;6249756;23;20415;-92
2024/01/08 05:01:39;;;;;;;1.30;1.10;;;22.60;56.00;;;;;;6250425;23;20476;-92
2024/01/08 05:04:05;;;;;;;1.70;1.27;;;22.60;55.90;;;;;;6251537;23;20420;-92
2024/01/08 05:06:32;;;;;;;1.30;1.10;;;22.60;55.90;;;;;;6251974;23;20440;-92
2024/01/08 05:09:00;;;;;;;1.30;1.00;;;22.60;55.90;;;;;;6250024;23;20492;-93
2024/01/08 05:11:27;;;;;;;1.20;1.00;;;22.60;55.90;;;;;;6252102;23;20412;-92
2024/01/08 05:13:55;;;;;;;1.67;1.30;;;22.60;55.90;;;;;;6249674;23;20488;-92
2024/01/08 05:16:22;;;;;;;1.30;1.10;;;22.70;55.90;;;;;;6249999;23;20487;-92
2024/01/08 05:18:49;;;;;;;1.40;1.13;;;22.70;56.00;;;;;;6250270;23;20405;-92
2024/01/08 05:21:16;;;;;;;1.30;1.10;;;22.70;55.90;;;;;;6251182;23;20392;-92
2024/01/08 05:23:43;;;;;;;1.30;1.10;;;22.70;56.00;;;;;;6250861;23;20432;-92
2024/01/08 05:26:10;;;;;;;1.50;1.20;;;22.70;55.90;;;;;;6250793;23;20437;-92
2024/01/08 05:28:37;;;;;;;1.40;1.20;;;22.70;55.90;;;;;;6250687;23;20408;-92
2024/01/08 05:31:05;;;;;;;1.20;1.00;;;22.70;55.90;;;;;;6249378;23;20500;-91
2024/01/08 05:33:32;;;;;;;1.40;1.30;;;22.70;55.90;;;;;;6252510;23;20493;-92
2024/01/08 05:36:14;;;;;;;1.30;1.10;;;22.60;56.40;;;;;;6252488;23;20436;-96
2024/01/08 05:38:41;;;;;;;1.30;1.00;;;22.70;55.90;;;;;;6250713;23;20499;-91
2024/01/08 05:41:08;;;;;;;1.33;1.20;;;22.70;55.90;;;;;;6251114;23;20475;-92
2024/01/08 05:43:37;;;;;;;1.20;0.93;;;22.80;56.00;;;;;;6250718;23;20406;-92
2024/01/08 05:46:06;;;;;;;1.50;1.30;;;22.70;55.90;;;;;;6250434;23;20393;-91
2024/01/08 05:48:37;;;;;;;1.33;0.93;;;22.70;56.00;;;;;;6251451;23;20405;-91
2024/01/08 05:51:05;;;;;;;1.30;1.10;;;22.70;55.90;;;;;;6251396;23;20439;-91
2024/01/08 05:53:32;;;;;;;1.30;1.17;;;22.60;55.90;;;;;;6261820;23;20404;-91
2024/01/08 05:55:59;;;;;;;1.40;1.03;;;22.70;55.90;;;;;;6265784;23;20495;-93
2024/01/08 05:58:25;;;;;;;1.50;1.27;;;22.70;55.90;;;;;;6254715;23;20897;-92
2024/01/08 06:00:53;;;;;;;1.47;1.33;;;22.70;55.80;;;;;;6253809;23;20409;-92
2024/01/08 06:03:22;;;;;;;1.50;1.10;;;22.70;55.90;;;;;;6260597;23;20409;-90
2024/01/08 06:05:49;;;;;;;1.47;1.20;;;22.60;55.80;;;;;;6248232;23;20417;-90
2024/01/08 06:08:16;;;;;;;1.83;1.33;;;22.70;55.90;;;;;;6248218;23;21016;-90
2024/01/08 06:10:44;;;;;;;1.60;1.50;;;22.70;55.90;;;;;;6249535;23;20425;-91
2024/01/08 06:13:11;;;;;;;1.60;1.50;;;22.80;55.90;;;;;;6249005;23;20433;-90
2024/01/08 06:15:39;;;;;;;1.37;1.20;;;22.70;55.80;;;;;;6247711;23;20435;-91
2024/01/08 06:18:07;;;;;;;1.30;1.20;;;22.70;55.80;;;;;;6250012;23;20401;-92
2024/01/08 06:20:35;;;;;;;1.37;1.13;;;22.70;55.80;;;;;;6248792;23;20543;-91
2024/01/08 06:23:03;;;;;;;1.70;1.17;;;22.70;55.80;;;;;;6263638;23;20841;-91
2024/01/08 06:25:37;;;;;;;1.40;1.20;;;22.70;55.80;;;;;;6262592;23;20503;-92
2024/01/08 06:28:05;;;;;;;1.40;1.10;;;22.70;55.70;;;;;;6266121;22;20555;-90
2024/01/08 06:30:33;;;;;;;1.40;1.30;;;22.70;55.80;;;;;;6247750;23;20432;-92
2024/01/08 06:32:59;;;;;;;1.50;1.40;;;22.70;55.80;;;;;;6248274;23;20404;-91
2024/01/08 06:35:26;;;;;;;1.30;1.10;;;22.70;55.80;;;;;;6248216;23;20495;-91
2024/01/08 06:37:54;;;;;;;1.60;1.30;;;22.70;55.70;;;;;;6251510;23;20433;-91
2024/01/08 06:40:21;;;;;;;1.40;1.10;;;22.70;55.70;;;;;;6250822;23;20484;-91
2024/01/08 06:42:48;;;;;;;1.30;1.20;;;22.70;55.70;;;;;;6250838;23;20408;-91
2024/01/08 06:45:15;;;;;;;1.30;1.20;;;22.70;55.70;;;;;;6248936;23;20424;-92
2024/01/08 06:47:42;;;;;;;1.50;1.30;;;22.70;55.70;;;;;;6254775;23;20519;-94
2024/01/08 06:50:10;;;;;;;1.50;1.30;;;22.70;55.70;;;;;;6249456;23;20881;-92
2024/01/08 06:52:37;;;;;;;1.30;1.13;;;22.70;55.70;;;;;;6246747;23;20441;-92
2024/01/08 06:55:06;;;;;;;1.40;1.30;;;22.70;55.70;;;;;;6247364;23;20445;-91
2024/01/08 06:57:33;;;;;;;1.43;1.33;;;22.70;55.70;;;;;;6247215;23;20492;-90
2024/01/08 07:00:00;;;;;;;1.60;1.23;;;22.70;55.70;;;;;;6246903;23;20489;-91
2024/01/08 07:02:27;;;;;;;1.30;1.00;;;22.80;55.80;;;;;;6247267;23;20462;-91
2024/01/08 07:04:53;;;;;;;1.40;1.10;;;22.80;55.70;;;;;;6246686;23;20393;-90
2024/01/08 07:07:20;;;;;;;1.60;1.30;;;22.70;55.70;;;;;;6246854;23;20440;-92
2024/01/08 07:09:47;;;;;;;1.50;1.30;;;22.70;55.70;;;;;;6248462;23;20401;-91
2024/01/08 07:12:15;;;;;;;1.20;1.00;;;22.70;55.70;;;;;;6248866;23;20405;-91
2024/01/08 07:14:46;;;;;;;1.20;1.00;;;22.70;55.70;;;;;;6247876;23;20880;-92
2024/01/08 07:17:13;;;;;;;1.50;1.13;;;22.80;55.70;;;;;;6249191;23;20393;-91
2024/01/08 07:19:40;;;;;;;1.53;1.20;;;22.70;55.60;;;;;;6247957;23;20497;-92
2024/01/08 07:22:07;;;;;;;1.40;1.10;;;22.70;56.20;;;;;;6248936;23;20409;-91
2024/01/08 07:24:34;;;;;;;1.20;1.00;;;22.70;55.70;;;;;;6248900;23;20443;-92
2024/01/08 07:27:01;;;;;;;1.40;1.10;;;22.70;55.70;;;;;;6247681;23;20437;-91
2024/01/08 07:29:29;;;;;;;1.40;1.30;;;22.70;55.70;;;;;;6249181;23;20487;-91
2024/01/08 07:31:56;;;;;;;1.30;1.03;;;22.70;55.70;;;;;;6246867;23;20912;-95
2024/01/08 07:34:23;;;;;;;1.30;1.20;;;22.80;55.70;;;;;;6247979;23;20413;-92
2024/01/08 07:36:50;;;;;;;1.60;1.20;;;22.80;55.70;;;;;;6249539;23;20420;-92
2024/01/08 07:39:18;;;;;;;1.30;1.10;;;22.80;55.70;;;;;;6248420;23;20495;-92
2024/01/08 07:41:45;;;;;;;1.43;1.30;;;22.80;55.70;;;;;;6248000;23;20416;-93
2024/01/08 07:44:14;;;;;;;1.33;1.23;;;22.80;55.70;;;;;;6247303;23;20963;-92
2024/01/08 07:46:42;;;;;;;1.40;1.23;;;22.80;55.70;;;;;;6247089;23;20405;-92
2024/01/08 07:49:10;;;;;;;1.97;1.20;;;22.90;55.80;;;;;;6249278;23;20906;-92
2024/01/08 07:51:37;;;;;;;3.30;1.10;;;22.90;55.50;;;;;;6247422;23;20409;-92
2024/01/08 07:54:04;;;;;;;1.73;1.63;;;22.80;55.70;;;;;;6246775;23;21016;-92
2024/01/08 07:56:31;;;;;;;1.80;1.30;;;22.90;55.70;;;;;;6247700;23;20743;-92
2024/01/08 07:58:57;;;;;;;2.03;1.43;;;22.80;55.80;;;;;;6247708;23;20492;-91
2024/01/08 08:01:24;;;;;;;1.70;1.60;;;22.90;55.90;;;;;;6247344;23;20480;-90
2024/01/08 08:03:52;;;;;;;2.40;1.40;;;22.90;55.90;;;;;;6247375;23;20484;-92
2024/01/08 08:06:19;;;;;;;2.13;1.77;;;22.90;55.90;;;;;;6247170;23;20435;-91
2024/01/08 08:08:46;;;;;;;2.33;1.70;;;22.90;55.90;;;;;;6248081;23;20481;-92
2024/01/08 08:11:13;;;;;;;1.97;1.43;;;22.90;55.90;;;;;;6249236;23;20495;-92
2024/01/08 08:13:40;;;;;;;2.20;1.90;;;22.90;55.90;;;;;;6248505;23;20935;-92
2024/01/08 08:16:08;;;;;;;1.40;1.13;;;22.90;56.00;;;;;;6246465;23;20797;-92
2024/01/08 08:18:35;;;;;;;1.50;1.40;;;22.90;56.00;;;;;;6246624;23;20439;-91
2024/01/08 08:21:05;;;;;;;5.63;1.50;;;23.00;56.10;;;;;;6247015;23;20725;-91
2024/01/08 08:23:32;;;;;;;1.73;1.40;;;23.00;56.10;;;;;;6247654;23;20431;-91
2024/01/08 08:26:22;;;;;;;3.40;1.60;;;23.00;56.10;;;;;;6252474;23;20405;-94
2024/01/08 08:41:06;;;;;;;2.10;1.70;;;23.00;56.40;;;;;;6245818;23;20393;-92
2024/01/08 08:43:34;;;;;;;1.80;1.70;;;22.90;56.30;;;;;;6253411;23;20880;-94
2024/01/08 08:46:00;;;;;;;1.90;1.50;;;22.90;56.30;;;;;;6250813;23;20947;-95
2024/01/08 08:48:28;;;;;;;1.70;1.60;;;22.90;56.30;;;;;;6247773;23;20445;-89
2024/01/08 08:50:54;;;;;;;3.33;3.13;;;22.90;56.20;;;;;;6247883;23;20442;-91
2024/01/08 08:53:23;;;;;;;21.33;19.73;;;22.90;56.70;;;;;;6246101;23;20504;-88
2024/01/08 08:55:49;;;;;;;7.10;6.60;;;22.90;56.10;;;;;;6253772;23;20439;-87
2024/01/08 08:58:16;;;;;;;5.80;5.30;;;22.90;56.30;;;;;;6245883;23;20476;-95
2024/01/08 09:00:43;;;;;;;5.20;4.80;;;23.00;56.30;;;;;;6245996;23;20459;-89
2024/01/08 09:03:10;;;;;;;6.40;6.00;;;23.00;56.40;;;;;;6252733;23;20405;-90
2024/01/08 09:05:37;;;;;;;12.60;11.40;;;23.00;56.20;;;;;;6253875;23;20448;-86
2024/01/08 09:08:04;;;;;;;15.20;13.90;;;23.00;56.20;;;;;;6252137;23;20449;-87
2024/01/08 09:10:34;;;;;;;15.10;13.77;;;23.00;56.10;;;;;;6253002;23;20452;-93
2024/01/08 09:13:01;;;;;;;10.87;9.87;;;23.00;55.90;;;;;;6252663;23;20464;-84
2024/01/08 09:15:30;;;;;;;11.90;10.60;;;23.00;52.90;;;;;;6254708;23;20516;-93
2024/01/08 09:17:58;;;;;;;15.80;14.60;;;22.90;54.20;;;;;;6259444;23;20401;-95
2024/01/08 09:20:26;;;;;;;16.10;14.80;;;22.80;55.30;;;;;;6258488;23;20437;-96
2024/01/08 09:22:53;;;;;;;16.50;14.90;;;22.90;55.50;;;;;;6255326;23;20463;-92
2024/01/08 09:25:20;;;;;;;15.70;14.40;;;22.90;55.50;;;;;;6253249;23;20896;-94
2024/01/08 09:27:48;;;;;;;14.23;13.13;;;22.90;55.50;;;;;;6252126;23;21029;-95
2024/01/08 09:30:16;;;;;;;13.67;12.67;;;23.00;55.60;;;;;;6256798;22;20413;-96
2024/01/08 09:32:45;;;;;;;22.47;20.30;;;23.00;55.50;;;;;;6250448;23;20901;-83
2024/01/08 09:35:12;;;;;;;23.60;20.77;;;23.10;55.40;;;;;;6251374;23;20397;-88
2024/01/08 09:37:40;;;;;;;20.10;18.07;;;23.10;55.40;;;;;;6252256;23;20524;-90
2024/01/08 09:40:10;;;;;;;18.63;16.83;;;23.10;55.40;;;;;;6246912;23;20398;-83
2024/01/08 09:42:39;;;;;;;18.83;17.03;;;23.10;55.40;;;;;;6245612;23;20483;-84
2024/01/08 09:45:12;;;;;;;18.63;16.83;;;23.20;55.50;;;;;;6249450;23;20428;-86
2024/01/08 09:47:41;;;;;;;17.40;15.80;;;23.20;55.50;;;;;;6249761;23;20808;-84
2024/01/08 09:50:09;;;;;;;16.63;15.20;;;23.20;55.50;;;;;;6248724;23;20447;-92
2024/01/08 09:52:39;;;;;;;30.57;27.47;;;23.20;55.20;;;;;;6255555;23;20435;-95
2024/01/08 09:55:08;;;;;;;26.37;23.67;;;23.30;55.30;;;;;;6249266;23;20908;-92
2024/01/08 09:57:35;;;;;;;23.93;21.60;;;23.40;55.30;;;;;;6249339;23;20455;-95
2024/01/08 10:00:04;;;;;;;22.57;20.30;;;23.40;55.10;;;;;;6249415;23;20436;-92
2024/01/08 10:02:32;;;;;;;22.93;20.83;;;23.60;55.20;;;;;;6249032;23;20408;-93
2024/01/08 10:04:59;;;;;;;23.70;21.30;;;23.50;55.00;;;;;;6249560;23;20397;-85
2024/01/08 10:07:27;;;;;;;20.70;18.80;;;23.60;55.10;;;;;;6250168;23;20397;-95
2024/01/08 10:10:00;;;;;;;20.70;18.80;;;23.60;55.00;;;;;;6248498;23;20401;-82
2024/01/08 10:12:28;;;;;;;20.37;18.50;;;23.70;55.00;;;;;;6247982;23;20440;-82
2024/01/08 10:14:56;;;;;;;20.53;18.60;;;23.80;55.00;;;;;;6248768;23;20397;-81
2024/01/08 10:17:22;;;;;;;18.53;16.83;;;23.80;54.50;;;;;;6248062;23;20401;-81
2024/01/08 10:19:51;;;;;;;19.20;17.40;;;23.80;54.60;;;;;;6247496;23;20690;-81
2024/01/08 10:22:18;;;;;;;19.67;17.60;;;23.80;54.60;;;;;;6248423;23;20397;-82
2024/01/08 10:24:48;;;;;;;17.13;15.63;;;23.90;54.70;;;;;;6246816;23;20436;-81
2024/01/08 10:27:15;;;;;;;15.40;14.00;;;23.90;54.20;;;;;;6246393;23;20455;-82
2024/01/08 10:29:43;;;;;;;15.87;14.47;;;24.00;54.60;;;;;;6246243;23;20459;-81
2024/01/08 10:32:12;;;;;;;15.53;14.23;;;24.00;54.60;;;;;;6246479;23;20433;-81
2024/01/08 10:34:41;;;;;;;17.27;15.57;;;24.10;54.70;;;;;;6246328;23;20785;-81
2024/01/08 10:37:10;;;;;;;15.20;13.80;;;24.10;54.70;;;;;;6246481;23;20433;-81
2024/01/08 10:39:39;;;;;;;15.40;14.00;;;24.10;54.50;;;;;;6247404;23;20402;-81
2024/01/08 10:42:07;;;;;;;12.90;11.80;;;24.20;54.80;;;;;;6248801;23;20405;-94
2024/01/08 10:44:34;;;;;;;15.13;13.70;;;24.20;53.20;;;;;;6252362;23;20458;-85
2024/01/08 10:47:06;;;;;;;14.13;12.83;;;24.10;53.30;;;;;;6247726;23;20433;-94
2024/01/08 10:49:35;;;;;;;13.40;12.20;;;24.20;54.10;;;;;;6247373;23;20475;-84
2024/01/08 10:52:09;;;;;;;14.30;13.00;;;24.20;53.90;;;;;;6245999;23;20409;-85
2024/01/08 10:54:44;;;;;;;13.63;12.43;;;24.30;54.30;;;;;;6247747;23;20423;-85
2024/01/08 10:57:14;;;;;;;13.10;11.90;;;24.30;54.20;;;;;;6219874;23;20902;-85
2024/01/08 10:59:44;;;;;;;13.17;11.80;;;24.40;54.30;;;;;;6247163;23;20398;-85
2024/01/08 11:02:14;;;;;;;12.57;11.20;;;24.40;54.40;;;;;;6220691;23;20864;-86
2024/01/08 11:04:42;;;;;;;16.47;11.27;;;24.40;54.40;;;;;;6247371;23;20433;-85
2024/01/08 11:07:11;;;;;;;11.93;10.93;;;24.50;54.60;;;;;;6246867;23;20880;-85
2024/01/08 11:09:41;;;;;;;11.97;10.87;;;24.50;54.60;;;;;;6247131;23;20441;-85
2024/01/08 11:12:10;;;;;;;10.67;9.80;;;24.50;54.60;;;;;;6246967;23;20525;-85
2024/01/08 11:14:37;;;;;;;12.57;11.07;;;24.60;54.70;;;;;;6247442;23;20398;-85
2024/01/08 11:17:04;;;;;;;10.63;9.60;;;24.60;54.60;;;;;;6249228;23;20397;-87
2024/01/08 11:19:31;;;;;;;11.23;9.90;;;24.60;54.70;;;;;;6247860;23;20433;-87
2024/01/08 11:22:11;;;;;;;11.47;10.47;;;24.60;54.80;;;;;;6246765;23;20401;-87
2024/01/08 11:24:41;;;;;;;12.83;10.27;;;24.50;55.40;;;;;;6246745;23;20416;-89
2024/01/08 11:27:07;;;;;;;11.37;10.20;;;24.50;55.00;;;;;;6247302;23;20446;-87
2024/01/08 11:29:34;;;;;;;13.73;12.43;;;24.50;55.30;;;;;;6247011;23;20474;-85
2024/01/08 11:32:29;;;;;;;14.10;12.87;;;24.50;55.70;;;;;;6247107;23;20413;-88
2024/01/08 11:34:57;;;;;;;15.47;14.00;;;24.50;56.20;;;;;;6247180;23;20382;-87
2024/01/08 11:37:32;;;;;;;14.40;13.00;;;24.50;56.40;;;;;;6246869;23;20966;-87
2024/01/08 11:40:03;;;;;;;15.63;12.67;;;24.50;57.30;;;;;;6251052;23;20436;-90
2024/01/08 11:42:31;;;;;;;16.63;13.17;;;24.50;56.60;;;;;;6248073;23;20401;-87
2024/01/08 11:44:59;;;;;;;15.90;11.40;;;24.50;56.70;;;;;;6246835;23;20408;-87
2024/01/08 11:47:26;;;;;;;14.03;12.53;;;24.50;56.10;;;;;;6247809;23;20488;-93
2024/01/08 11:49:56;;;;;;;13.60;11.97;;;24.40;56.40;;;;;;6247949;23;20445;-89
2024/01/08 11:52:23;;;;;;;10.37;9.30;;;24.50;56.50;;;;;;6248067;23;20408;-89
2024/01/08 11:54:52;;;;;;;11.80;10.70;;;24.40;55.50;;;;;;6247964;23;20453;-88
2024/01/08 11:57:21;;;;;;;18.83;10.87;;;24.40;56.20;;;;;;6247474;23;20397;-88
2024/01/08 11:59:48;;;;;;;17.70;12.13;;;24.40;56.30;;;;;;6250568;23;20435;-85
2024/01/08 12:02:16;;;;;;;18.60;15.90;;;24.50;56.20;;;;;;6247293;23;20757;-85
2024/01/08 12:04:51;;;;;;;22.17;14.63;;;24.50;55.60;;;;;;6246922;23;20872;-86
2024/01/08 12:07:18;;;;;;;16.10;14.03;;;24.50;54.70;;;;;;6246870;23;20377;-86
2024/01/08 12:09:47;;;;;;;13.70;12.27;;;24.50;54.80;;;;;;6247024;23;20774;-86
2024/01/08 12:12:16;;;;;;;14.47;12.97;;;24.50;54.80;;;;;;6246495;23;20503;-86
2024/01/08 12:14:46;;;;;;;14.90;11.70;;;24.40;54.60;;;;;;6246595;23;20444;-86
2024/01/08 12:17:15;;;;;;;12.83;11.33;;;24.40;54.60;;;;;;6246762;23;20884;-85
2024/01/08 12:19:44;;;;;;;12.87;11.53;;;24.50;54.60;;;;;;6246709;23;20883;-86
2024/01/08 12:22:12;;;;;;;11.00;9.90;;;24.40;54.60;;;;;;6246880;23;20393;-86
2024/01/08 12:24:40;;;;;;;10.90;9.83;;;24.40;54.50;;;;;;6246367;23;20420;-86
2024/01/08 12:27:08;;;;;;;12.73;11.13;;;24.40;54.50;;;;;;6246726;23;20396;-86
2024/01/08 12:29:39;;;;;;;14.50;10.60;;;24.40;54.40;;;;;;6246863;23;20764;-86
2024/01/08 12:32:09;;;;;;;11.73;9.97;;;24.40;54.40;;;;;;6246925;23;20466;-86
2024/01/08 12:34:39;;;;;;;9.67;8.67;;;24.40;54.40;;;;;;6247359;23;20767;-86
2024/01/08 12:37:07;;;;;;;11.73;10.30;;;24.40;54.30;;;;;;6247326;23;20401;-86
2024/01/08 12:39:35;;;;;;;9.40;8.47;;;24.40;54.40;;;;;;6246475;23;20401;-86
2024/01/08 12:42:04;;;;;;;9.50;8.00;;;24.40;54.30;;;;;;6246834;23;20393;-86
2024/01/08 12:44:32;;;;;;;10.30;8.93;;;24.40;54.20;;;;;;6246785;23;20401;-86
2024/01/08 12:47:00;;;;;;;10.67;8.20;;;24.40;54.20;;;;;;6246716;23;20950;-86
2024/01/08 12:49:29;;;;;;;8.53;7.67;;;24.40;54.10;;;;;;6246895;23;20441;-86
2024/01/08 12:51:58;;;;;;;10.43;7.77;;;24.40;54.10;;;;;;6246439;23;20408;-86
2024/01/08 12:54:25;;;;;;;8.53;7.70;;;24.40;54.10;;;;;;6246660;23;20966;-86
2024/01/08 12:56:52;;;;;;;7.67;6.97;;;24.40;54.10;;;;;;6246695;23;20408;-86
2024/01/08 12:59:24;;;;;;;8.63;7.77;;;24.40;54.10;;;;;;6246433;23;20898;-86